Time,TemperatureF,DewpointF,PressureIn,WindDirection,WindDirectionDegrees,WindSpeedMPH,WindSpeedGustMPH,Humidity,HourlyPrecipIn,Conditions,Clouds,dailyrainin,SoftwareType,DateUTC
2013-09-08 00:09:00,51.2,36.0,29.68,North,350,0.0,-999.0,56,-99.99,,,0.00,weatherlink.com 1.10,2013-09-08 06:09:00,
2013-09-08 00:24:00,50.6,36.0,29.68,NNW,336,0.0,-999.0,58,-99.99,,,0.00,weatherlink.com 1.10,2013-09-08 06:24:00,
2013-09-08 00:39:00,50.5,36.0,29.68,NW,323,0.0,-999.0,58,-99.99,,,0.00,weatherlink.com 1.10,2013-09-08 06:39:00,
2013-09-08 00:54:00,50.0,36.0,29.68,WNW,294,0.0,-999.0,59,-99.99,,,0.00,weatherlink.com 1.10,2013-09-08 06:54:00,
2013-09-08 01:09:00,49.7,36.0,29.68,WNW,293,0.0,-999.0,59,-99.99,,,0.00,weatherlink.com 1.10,2013-09-08 07:09:00,
2013-09-08 01:24:00,49.8,36.0,29.68,WNW,293,0.0,-999.0,59,-99.99,,,0.00,weatherlink.com 1.10,2013-09-08 07:24:00,
2013-09-08 01:39:00,49.5,36.0,29.68,WNW,301,3.0,-999.0,61,-99.99,,,0.00,weatherlink.com 1.10,2013-09-08 07:39:00,
2013-09-08 01:54:00,49.3,36.0,29.67,WNW,296,0.0,-999.0,60,-99.99,,,0.00,weatherlink.com 1.10,2013-09-08 07:54:00,
2013-09-08 02:09:00,49.7,36.0,29.67,WNW,296,0.0,-999.0,60,-99.99,,,0.00,weatherlink.com 1.10,2013-09-08 08:09:00,
2013-09-08 02:24:00,50.0,36.0,29.67,WNW,295,0.0,-999.0,60,-99.99,,,0.00,weatherlink.com 1.10,2013-09-08 08:24:00,
2013-09-08 02:39:00,50.5,36.0,29.67,WSW,248,0.0,-999.0,58,-99.99,,,0.00,weatherlink.com 1.10,2013-09-08 08:39:00,
2013-09-08 02:54:00,51.6,35.0,29.66,WSW,257,1.0,-999.0,54,-99.99,,,0.00,weatherlink.com 1.10,2013-09-08 08:54:00,
2013-09-08 03:09:00,52.6,36.0,29.65,West,261,0.0,-999.0,53,-99.99,,,0.00,weatherlink.com 1.10,2013-09-08 09:09:00,
2013-09-08 03:24:00,52.5,36.0,29.65,West,280,0.0,-999.0,53,-99.99,,,0.00,weatherlink.com 1.10,2013-09-08 09:24:00,
2013-09-08 03:39:00,52.2,35.0,29.64,WNW,290,0.0,-999.0,53,-99.99,,,0.00,weatherlink.com 1.10,2013-09-08 09:39:00,
2013-09-08 03:54:00,52.1,35.0,29.64,WNW,290,0.0,-999.0,53,-99.99,,,0.00,weatherlink.com 1.10,2013-09-08 09:54:00,
2013-09-08 04:09:00,52.1,35.0,29.64,WNW,290,0.0,-999.0,53,-99.99,,,0.00,weatherlink.com 1.10,2013-09-08 10:09:00,
2013-09-08 04:24:00,51.9,36.0,29.65,WNW,290,0.0,-999.0,54,-99.99,,,0.00,weatherlink.com 1.10,2013-09-08 10:24:00,
2013-09-08 04:39:00,50.9,35.0,29.65,WNW,290,0.0,-999.0,56,-99.99,,,0.00,weatherlink.com 1.10,2013-09-08 10:39:00,
2013-09-08 04:54:00,50.2,36.0,29.65,WNW,284,0.0,-999.0,58,-99.99,,,0.00,weatherlink.com 1.10,2013-09-08 10:54:00,
2013-09-08 05:09:00,49.2,35.0,29.65,WNW,284,0.0,-999.0,59,-99.99,,,0.00,weatherlink.com 1.10,2013-09-08 11:09:00,
2013-09-08 05:24:00,48.8,35.0,29.64,WNW,284,0.0,-999.0,60,-99.99,,,0.00,weatherlink.com 1.10,2013-09-08 11:24:00,
2013-09-08 05:39:00,48.2,35.0,29.64,WNW,284,0.0,-999.0,61,-99.99,,,0.00,weatherlink.com 1.10,2013-09-08 11:39:00,
2013-09-08 05:54:00,47.7,35.0,29.64,WNW,284,0.0,-999.0,62,-99.99,,,0.00,weatherlink.com 1.10,2013-09-08 11:54:00,
2013-09-08 06:09:00,47.2,35.0,29.65,WNW,284,0.0,-999.0,63,-99.99,,,0.00,weatherlink.com 1.10,2013-09-08 12:09:00,
2013-09-08 06:24:00,47.1,35.0,29.65,WNW,284,0.0,-999.0,64,-99.99,,,0.00,weatherlink.com 1.10,2013-09-08 12:24:00,
2013-09-08 06:39:00,46.9,36.0,29.65,WNW,303,0.0,-999.0,65,-99.99,,,0.00,weatherlink.com 1.10,2013-09-08 12:39:00,
2013-09-08 06:54:00,46.7,35.0,29.65,WNW,303,0.0,-999.0,65,-99.99,,,0.00,weatherlink.com 1.10,2013-09-08 12:54:00,
2013-09-08 07:09:00,46.9,36.0,29.65,WNW,303,0.0,-999.0,65,-99.99,,,0.00,weatherlink.com 1.10,2013-09-08 13:09:00,
2013-09-08 07:24:00,47.9,36.0,29.64,WNW,302,0.0,-999.0,64,-99.99,,,0.00,weatherlink.com 1.10,2013-09-08 13:24:00,
2013-09-08 07:40:00,49.5,37.0,29.64,WNW,302,0.0,-999.0,63,-99.99,,,0.00,weatherlink.com 1.10,2013-09-08 13:40:00,
2013-09-08 07:55:00,50.6,37.0,29.64,WNW,302,0.0,-999.0,60,-99.99,,,0.00,weatherlink.com 1.10,2013-09-08 13:55:00,
2013-09-08 08:10:00,52.9,38.0,29.63,WNW,300,0.0,-999.0,58,-99.99,,,0.00,weatherlink.com 1.10,2013-09-08 14:10:00,
2013-09-08 08:25:00,56.2,39.0,29.63,WNW,297,0.0,-999.0,53,-99.99,,,0.00,weatherlink.com 1.10,2013-09-08 14:25:00,
2013-09-08 08:40:00,59.7,39.0,29.62,West,264,0.0,-999.0,46,-99.99,,,0.00,weatherlink.com 1.10,2013-09-08 14:40:00,
2013-09-08 08:55:00,61.8,39.0,29.61,West,272,1.0,-999.0,43,-99.99,,,0.00,weatherlink.com 1.10,2013-09-08 14:55:00,
2013-09-08 09:10:00,61.8,40.0,29.61,NW,306,0.0,-999.0,45,-99.99,,,0.00,weatherlink.com 1.10,2013-09-08 15:10:00,
2013-09-08 09:25:00,60.9,40.0,29.61,ESE,123,0.0,-999.0,47,-99.99,,,0.00,weatherlink.com 1.10,2013-09-08 15:25:00,
2013-09-08 09:40:00,58.7,41.0,29.61,ESE,108,0.0,-999.0,52,-99.99,,,0.00,weatherlink.com 1.10,2013-09-08 15:40:00,
2013-09-08 09:55:00,59.8,41.0,29.60,SE,124,0.0,-999.0,50,-99.99,,,0.00,weatherlink.com 1.10,2013-09-08 15:55:00,
2013-09-08 10:10:00,62.0,41.0,29.60,ESE,121,0.0,-999.0,47,-99.99,,,0.00,weatherlink.com 1.10,2013-09-08 16:10:00,
2013-09-08 10:25:00,62.2,42.0,29.59,East,89,0.0,-999.0,47,-99.99,,,0.00,weatherlink.com 1.10,2013-09-08 16:25:00,
2013-09-08 10:40:00,63.1,41.0,29.59,SE,134,11.0,-999.0,45,-99.99,,,0.00,weatherlink.com 1.10,2013-09-08 16:40:00,
2013-09-08 10:55:00,63.0,40.0,29.59,West,277,5.0,-999.0,43,-99.99,,,0.00,weatherlink.com 1.10,2013-09-08 16:55:00,
2013-09-08 11:10:00,63.8,39.0,29.59,NW,305,0.0,-999.0,41,-99.99,,,0.00,weatherlink.com 1.10,2013-09-08 17:10:00,
2013-09-08 11:25:00,63.9,39.0,29.59,SE,139,0.0,-999.0,40,-99.99,,,0.00,weatherlink.com 1.10,2013-09-08 17:25:00,
2013-09-08 11:40:00,61.8,39.0,29.59,SSE,148,0.0,-999.0,44,-99.99,,,0.00,weatherlink.com 1.10,2013-09-08 17:40:00,
2013-09-08 11:55:00,61.1,38.0,29.59,SSE,148,0.0,-999.0,43,-99.99,,,0.00,weatherlink.com 1.10,2013-09-08 17:55:00,
2013-09-08 12:10:00,61.0,40.0,29.59,SSE,148,0.0,-999.0,46,-99.99,,,0.00,weatherlink.com 1.10,2013-09-08 18:10:00,
2013-09-08 12:25:00,60.4,40.0,29.59,SE,142,0.0,-999.0,48,-99.99,,,0.00,weatherlink.com 1.10,2013-09-08 18:25:00,
2013-09-08 12:40:00,60.1,40.0,29.59,SSE,161,0.0,-999.0,48,-99.99,,,0.00,weatherlink.com 1.10,2013-09-08 18:40:00,
2013-09-08 12:55:00,60.2,40.0,29.59,SSE,154,0.0,-999.0,47,-99.99,,,0.00,weatherlink.com 1.10,2013-09-08 18:55:00,
2013-09-08 13:10:00,60.3,40.0,29.58,SSE,153,0.0,-999.0,47,-99.99,,,0.00,weatherlink.com 1.10,2013-09-08 19:10:00,
2013-09-08 13:25:00,60.5,40.0,29.58,SW,229,0.0,-999.0,48,-99.99,,,0.00,weatherlink.com 1.10,2013-09-08 19:25:00,
2013-09-08 13:40:00,59.5,41.0,29.57,WNW,294,0.0,-999.0,51,-99.99,,,0.00,weatherlink.com 1.10,2013-09-08 19:40:00,
2013-09-08 13:55:00,58.4,39.0,29.57,NW,315,0.0,-999.0,49,-99.99,,,0.00,weatherlink.com 1.10,2013-09-08 19:55:00,
2013-09-08 14:10:00,58.1,40.0,29.57,South,183,0.0,-999.0,51,-99.99,,,0.01,weatherlink.com 1.10,2013-09-08 20:10:00,
2013-09-08 14:25:00,57.6,44.0,29.57,SE,136,0.0,-999.0,60,-99.99,,,0.01,weatherlink.com 1.10,2013-09-08 20:25:00,
2013-09-08 14:40:00,57.1,44.0,29.57,WNW,295,1.0,-999.0,62,-99.99,,,0.01,weatherlink.com 1.10,2013-09-08 20:40:00,
2013-09-08 14:55:00,58.7,43.0,29.57,NW,309,0.0,-999.0,56,-99.99,,,0.01,weatherlink.com 1.10,2013-09-08 20:55:00,
2013-09-08 15:10:00,61.3,40.0,29.56,WNW,301,0.0,-999.0,45,-99.99,,,0.01,weatherlink.com 1.10,2013-09-08 21:10:00,
2013-09-08 15:25:00,62.3,41.0,29.55,NW,316,2.0,-999.0,45,-99.99,,,0.01,weatherlink.com 1.10,2013-09-08 21:25:00,
2013-09-08 15:40:00,63.5,40.0,29.54,West,273,0.0,-999.0,42,-99.99,,,0.01,weatherlink.com 1.10,2013-09-08 21:40:00,
2013-09-08 15:55:00,64.6,39.0,29.53,WNW,283,0.0,-999.0,39,-99.99,,,0.01,weatherlink.com 1.10,2013-09-08 21:55:00,
2013-09-08 16:10:00,65.4,35.0,29.53,WSW,242,0.0,-999.0,33,-99.99,,,0.01,weatherlink.com 1.10,2013-09-08 22:10:00,
2013-09-08 16:25:00,65.8,33.0,29.53,SSE,154,0.0,-999.0,30,-99.99,,,0.01,weatherlink.com 1.10,2013-09-08 22:25:00,
2013-09-08 16:40:00,66.1,34.0,29.52,SE,144,0.0,-999.0,30,-99.99,,,0.01,weatherlink.com 1.10,2013-09-08 22:40:00,
2013-09-08 16:55:00,65.1,34.0,29.52,SE,144,11.0,-999.0,31,-99.99,,,0.01,weatherlink.com 1.10,2013-09-08 22:55:00,
2013-09-08 17:10:00,64.1,36.0,29.53,South,180,2.0,-999.0,35,-99.99,,,0.01,weatherlink.com 1.10,2013-09-08 23:10:00,
2013-09-08 17:25:00,62.6,38.0,29.53,SSW,197,0.0,-999.0,40,-99.99,,,0.01,weatherlink.com 1.10,2013-09-08 23:25:00,
2013-09-08 17:40:00,61.4,37.0,29.53,SSW,213,0.0,-999.0,40,-99.99,,,0.01,weatherlink.com 1.10,2013-09-08 23:40:00,
2013-09-08 17:55:00,60.7,37.0,29.52,SSW,205,0.0,-999.0,41,-99.99,,,0.01,weatherlink.com 1.10,2013-09-08 23:55:00,
2013-09-08 18:10:00,60.3,36.0,29.52,WSW,239,0.0,-999.0,41,-99.99,,,0.01,weatherlink.com 1.10,2013-09-09 00:10:00,
2013-09-08 18:25:00,59.5,36.0,29.52,West,272,0.0,-999.0,42,-99.99,,,0.01,weatherlink.com 1.10,2013-09-09 00:25:00,
2013-09-08 18:40:00,58.6,36.0,29.52,West,261,0.0,-999.0,43,-99.99,,,0.01,weatherlink.com 1.10,2013-09-09 00:40:00,
2013-09-08 18:55:00,57.9,36.0,29.52,West,259,0.0,-999.0,44,-99.99,,,0.01,weatherlink.com 1.10,2013-09-09 00:55:00,
2013-09-08 19:10:00,57.4,37.0,29.52,West,261,0.0,-999.0,46,-99.99,,,0.01,weatherlink.com 1.10,2013-09-09 01:10:00,
2013-09-08 19:25:00,56.5,38.0,29.52,ENE,73,0.0,-999.0,51,-99.99,,,0.01,weatherlink.com 1.10,2013-09-09 01:25:00,
2013-09-08 19:40:00,55.8,39.0,29.52,ENE,71,0.0,-999.0,54,-99.99,,,0.01,weatherlink.com 1.10,2013-09-09 01:40:00,
2013-09-08 19:55:00,54.9,39.0,29.53,ENE,71,0.0,-999.0,55,-99.99,,,0.01,weatherlink.com 1.10,2013-09-09 01:55:00,
2013-09-08 20:10:00,53.9,39.0,29.53,ENE,71,0.0,-999.0,58,-99.99,,,0.01,weatherlink.com 1.10,2013-09-09 02:10:00,
2013-09-08 20:25:00,53.1,39.0,29.54,ENE,71,0.0,-999.0,60,-99.99,,,0.01,weatherlink.com 1.10,2013-09-09 02:25:00,
2013-09-08 20:40:00,52.2,39.0,29.54,WNW,301,0.0,-999.0,61,-99.99,,,0.01,weatherlink.com 1.10,2013-09-09 02:40:00,
2013-09-08 20:55:00,52.1,38.0,29.53,NW,305,0.0,-999.0,60,-99.99,,,0.01,weatherlink.com 1.10,2013-09-09 02:55:00,
2013-09-08 21:10:00,52.8,39.0,29.53,WNW,300,0.0,-999.0,61,-99.99,,,0.01,weatherlink.com 1.10,2013-09-09 03:10:00,
2013-09-08 21:25:00,53.0,40.0,29.53,NW,318,0.0,-999.0,61,-99.99,,,0.01,weatherlink.com 1.10,2013-09-09 03:25:00,
2013-09-08 21:40:00,52.3,39.0,29.53,NW,318,0.0,-999.0,61,-99.99,,,0.01,weatherlink.com 1.10,2013-09-09 03:40:00,
2013-09-08 21:55:00,51.9,39.0,29.54,North,5,0.0,-999.0,62,-99.99,,,0.01,weatherlink.com 1.10,2013-09-09 03:55:00,
2013-09-08 22:10:00,52.3,40.0,29.53,NW,323,0.0,-999.0,63,-99.99,,,0.01,weatherlink.com 1.10,2013-09-09 04:10:00,
2013-09-08 22:24:00,52.4,40.0,29.53,NW,325,0.0,-999.0,64,-99.99,,,0.01,weatherlink.com 1.10,2013-09-09 04:24:00,
2013-09-08 22:40:00,51.5,40.0,29.54,North,5,0.0,-999.0,66,-99.99,,,0.01,weatherlink.com 1.10,2013-09-09 04:40:00,
2013-09-08 22:55:00,50.6,40.0,29.53,North,5,0.0,-999.0,68,-99.99,,,0.01,weatherlink.com 1.10,2013-09-09 04:55:00,
2013-09-08 23:10:00,49.9,40.0,29.53,North,5,0.0,-999.0,69,-99.99,,,0.01,weatherlink.com 1.10,2013-09-09 05:10:00,
2013-09-08 23:25:00,49.0,40.0,29.54,North,355,0.0,-999.0,71,-99.99,,,0.01,weatherlink.com 1.10,2013-09-09 05:25:00,
2013-09-08 23:40:00,48.3,40.0,29.54,North,355,0.0,-999.0,72,-99.99,,,0.01,weatherlink.com 1.10,2013-09-09 05:40:00,
2013-09-08 23:55:00,48.5,40.0,29.54,NW,311,0.0,-999.0,73,-99.99,,,0.01,weatherlink.com 1.10,2013-09-09 05:55:00,